sensor_id;sensor_type;location;lat;lon;timestamp;P1;durP1;ratioP1;P2;durP2;ratioP2
79047;SDS011;68680;50.764;6.120;2024-01-15T00:00:00;75.03;;;21.45;;
79047;SDS011;68680;50.764;6.120;2024-01-15T00:02:26;65.40;;;21.10;;
79047;SDS011;68680;50.764;6.120;2024-01-15T00:04:52;62.45;;;20.02;;
79047;SDS011;68680;50.764;6.120;2024-01-15T00:07:18;56.90;;;17.58;;
79047;SDS011;68680;50.764;6.120;2024-01-15T00:09:43;65.60;;;20.30;;
79047;SDS011;68680;50.764;6.120;2024-01-15T00:12:09;69.72;;;20.55;;
79047;SDS011;68680;50.764;6.120;2024-01-15T00:14:36;69.13;;;22.15;;
79047;SDS011;68680;50.764;6.120;2024-01-15T00:17:02;73.90;;;23.10;;
79047;SDS011;68680;50.764;6.120;2024-01-15T00:19:28;69.00;;;23.95;;
79047;SDS011;68680;50.764;6.120;2024-01-15T00:21:53;64.75;;;22.08;;
79047;SDS011;68680;50.764;6.120;2024-01-15T00:24:19;68.05;;;22.48;;
79047;SDS011;68680;50.764;6.120;2024-01-15T00:26:45;68.72;;;22.33;;
79047;SDS011;68680;50.764;6.120;2024-01-15T00:29:11;62.25;;;21.58;;
79047;SDS011;68680;50.764;6.120;2024-01-15T00:31:38;68.47;;;21.88;;
79047;SDS011;68680;50.764;6.120;2024-01-15T00:34:03;69.63;;;21.92;;
79047;SDS011;68680;50.764;6.120;2024-01-15T00:36:29;67.47;;;21.55;;
79047;SDS011;68680;50.764;6.120;2024-01-15T00:38:55;69.78;;;21.60;;
79047;SDS011;68680;50.764;6.120;2024-01-15T00:41:21;67.25;;;21.55;;
79047;SDS011;68680;50.764;6.120;2024-01-15T00:43:46;67.47;;;20.67;;
79047;SDS011;68680;50.764;6.120;2024-01-15T00:46:12;63.83;;;20.17;;
79047;SDS011;68680;50.764;6.120;2024-01-15T00:48:39;64.57;;;19.85;;
79047;SDS011;68680;50.764;6.120;2024-01-15T00:51:05;59.42;;;18.20;;
79047;SDS011;68680;50.764;6.120;2024-01-15T00:53:31;66.45;;;19.77;;
79047;SDS011;68680;50.764;6.120;2024-01-15T00:55:57;62.10;;;20.50;;
79047;SDS011;68680;50.764;6.120;2024-01-15T00:58:22;59.20;;;21.35;;
79047;SDS011;68680;50.764;6.120;2024-01-15T01:00:48;56.72;;;18.02;;
79047;SDS011;68680;50.764;6.120;2024-01-15T01:03:14;61.85;;;20.15;;
79047;SDS011;68680;50.764;6.120;2024-01-15T01:05:42;57.67;;;21.58;;
79047;SDS011;68680;50.764;6.120;2024-01-15T01:08:08;53.63;;;15.27;;
79047;SDS011;68680;50.764;6.120;2024-01-15T01:10:34;61.25;;;21.17;;
79047;SDS011;68680;50.764;6.120;2024-01-15T01:13:00;64.95;;;20.33;;
79047;SDS011;68680;50.764;6.120;2024-01-15T01:15:25;56.90;;;20.52;;
79047;SDS011;68680;50.764;6.120;2024-01-15T01:17:51;57.97;;;20.10;;
79047;SDS011;68680;50.764;6.120;2024-01-15T01:20:17;60.60;;;20.52;;
79047;SDS011;68680;50.764;6.120;2024-01-15T01:22:44;64.88;;;19.50;;
79047;SDS011;68680;50.764;6.120;2024-01-15T01:25:10;68.53;;;21.40;;
79047;SDS011;68680;50.764;6.120;2024-01-15T01:27:35;71.05;;;20.90;;
79047;SDS011;68680;50.764;6.120;2024-01-15T01:30:01;58.45;;;19.70;;
79047;SDS011;68680;50.764;6.120;2024-01-15T01:32:28;72.90;;;22.80;;
79047;SDS011;68680;50.764;6.120;2024-01-15T01:34:54;66.20;;;21.83;;
79047;SDS011;68680;50.764;6.120;2024-01-15T01:37:20;66.45;;;22.15;;
79047;SDS011;68680;50.764;6.120;2024-01-15T01:39:47;63.58;;;21.17;;
79047;SDS011;68680;50.764;6.120;2024-01-15T01:42:12;64.18;;;21.38;;
79047;SDS011;68680;50.764;6.120;2024-01-15T01:44:38;62.53;;;21.98;;
79047;SDS011;68680;50.764;6.120;2024-01-15T01:47:04;74.57;;;24.88;;
79047;SDS011;68680;50.764;6.120;2024-01-15T01:49:32;77.40;;;24.33;;
79047;SDS011;68680;50.764;6.120;2024-01-15T01:52:00;60.03;;;20.00;;
79047;SDS011;68680;50.764;6.120;2024-01-15T01:54:29;68.70;;;25.00;;
79047;SDS011;68680;50.764;6.120;2024-01-15T01:56:58;81.13;;;26.83;;
79047;SDS011;68680;50.764;6.120;2024-01-15T01:59:27;69.23;;;22.73;;
79047;SDS011;68680;50.764;6.120;2024-01-15T02:01:55;79.07;;;25.70;;
79047;SDS011;68680;50.764;6.120;2024-01-15T02:04:22;67.22;;;24.60;;
79047;SDS011;68680;50.764;6.120;2024-01-15T02:06:50;78.85;;;25.35;;
79047;SDS011;68680;50.764;6.120;2024-01-15T02:09:16;80.72;;;24.40;;
79047;SDS011;68680;50.764;6.120;2024-01-15T02:11:43;78.38;;;24.65;;
79047;SDS011;68680;50.764;6.120;2024-01-15T02:14:12;70.78;;;25.05;;
79047;SDS011;68680;50.764;6.120;2024-01-15T02:16:38;85.45;;;27.77;;
79047;SDS011;68680;50.764;6.120;2024-01-15T02:19:04;89.13;;;27.00;;
79047;SDS011;68680;50.764;6.120;2024-01-15T02:21:30;76.22;;;26.88;;
79047;SDS011;68680;50.764;6.120;2024-01-15T02:23:58;83.75;;;26.83;;
79047;SDS011;68680;50.764;6.120;2024-01-15T02:26:24;83.78;;;28.90;;
79047;SDS011;68680;50.764;6.120;2024-01-15T02:28:51;83.57;;;29.38;;
79047;SDS011;68680;50.764;6.120;2024-01-15T02:31:17;77.07;;;25.58;;
79047;SDS011;68680;50.764;6.120;2024-01-15T02:33:43;77.07;;;24.92;;
79047;SDS011;68680;50.764;6.120;2024-01-15T02:36:09;74.07;;;26.25;;
79047;SDS011;68680;50.764;6.120;2024-01-15T02:38:35;78.97;;;26.45;;
79047;SDS011;68680;50.764;6.120;2024-01-15T02:41:02;78.47;;;27.10;;
79047;SDS011;68680;50.764;6.120;2024-01-15T02:43:28;70.88;;;26.33;;
79047;SDS011;68680;50.764;6.120;2024-01-15T02:45:54;75.15;;;25.52;;
79047;SDS011;68680;50.764;6.120;2024-01-15T02:48:20;78.38;;;26.30;;
79047;SDS011;68680;50.764;6.120;2024-01-15T02:50:45;71.80;;;26.05;;
79047;SDS011;68680;50.764;6.120;2024-01-15T02:53:11;79.68;;;27.38;;
79047;SDS011;68680;50.764;6.120;2024-01-15T02:55:37;79.63;;;25.67;;
79047;SDS011;68680;50.764;6.120;2024-01-15T02:58:04;79.07;;;29.67;;
79047;SDS011;68680;50.764;6.120;2024-01-15T03:00:30;75.05;;;27.90;;
79047;SDS011;68680;50.764;6.120;2024-01-15T03:02:56;80.50;;;27.15;;
79047;SDS011;68680;50.764;6.120;2024-01-15T03:05:22;73.85;;;27.10;;
79047;SDS011;68680;50.764;6.120;2024-01-15T03:07:47;74.20;;;27.13;;
79047;SDS011;68680;50.764;6.120;2024-01-15T03:10:13;70.10;;;25.33;;
79047;SDS011;68680;50.764;6.120;2024-01-15T03:12:39;73.25;;;26.70;;
79047;SDS011;68680;50.764;6.120;2024-01-15T03:15:06;67.55;;;22.60;;
79047;SDS011;68680;50.764;6.120;2024-01-15T03:17:33;60.17;;;23.08;;
79047;SDS011;68680;50.764;6.120;2024-01-15T03:19:59;60.03;;;22.55;;
79047;SDS011;68680;50.764;6.120;2024-01-15T03:22:25;59.83;;;21.85;;
79047;SDS011;68680;50.764;6.120;2024-01-15T03:24:52;56.40;;;23.80;;
79047;SDS011;68680;50.764;6.120;2024-01-15T03:27:17;57.22;;;23.30;;
79047;SDS011;68680;50.764;6.120;2024-01-15T03:29:43;64.25;;;24.33;;
79047;SDS011;68680;50.764;6.120;2024-01-15T03:32:10;64.22;;;24.45;;
79047;SDS011;68680;50.764;6.120;2024-01-15T03:34:36;69.03;;;24.40;;
79047;SDS011;68680;50.764;6.120;2024-01-15T03:37:02;61.45;;;22.25;;
79047;SDS011;68680;50.764;6.120;2024-01-15T03:39:28;64.65;;;25.27;;
79047;SDS011;68680;50.764;6.120;2024-01-15T03:41:54;65.13;;;24.67;;
79047;SDS011;68680;50.764;6.120;2024-01-15T03:44:20;65.43;;;25.63;;
79047;SDS011;68680;50.764;6.120;2024-01-15T03:46:46;69.35;;;24.25;;
79047;SDS011;68680;50.764;6.120;2024-01-15T03:49:13;65.43;;;25.00;;
79047;SDS011;68680;50.764;6.120;2024-01-15T03:51:38;73.82;;;25.85;;
79047;SDS011;68680;50.764;6.120;2024-01-15T03:54:04;66.13;;;23.23;;
79047;SDS011;68680;50.764;6.120;2024-01-15T03:56:30;66.00;;;24.30;;
79047;SDS011;68680;50.764;6.120;2024-01-15T03:58:56;73.07;;;26.52;;
79047;SDS011;68680;50.764;6.120;2024-01-15T04:01:21;64.93;;;23.65;;
79047;SDS011;68680;50.764;6.120;2024-01-15T04:03:47;67.95;;;25.65;;
79047;SDS011;68680;50.764;6.120;2024-01-15T04:06:14;66.40;;;24.13;;
79047;SDS011;68680;50.764;6.120;2024-01-15T04:08:40;77.32;;;27.50;;
79047;SDS011;68680;50.764;6.120;2024-01-15T04:11:06;74.57;;;28.42;;
79047;SDS011;68680;50.764;6.120;2024-01-15T04:13:32;80.03;;;27.40;;
79047;SDS011;68680;50.764;6.120;2024-01-15T04:15:58;67.38;;;25.55;;
79047;SDS011;68680;50.764;6.120;2024-01-15T04:18:24;74.93;;;26.95;;
79047;SDS011;68680;50.764;6.120;2024-01-15T04:20:50;74.60;;;28.88;;
79047;SDS011;68680;50.764;6.120;2024-01-15T04:23:17;85.15;;;28.00;;
79047;SDS011;68680;50.764;6.120;2024-01-15T04:25:43;80.00;;;28.13;;
79047;SDS011;68680;50.764;6.120;2024-01-15T04:28:09;79.40;;;28.83;;
79047;SDS011;68680;50.764;6.120;2024-01-15T04:30:34;77.22;;;28.38;;
79047;SDS011;68680;50.764;6.120;2024-01-15T04:33:01;77.00;;;28.58;;
79047;SDS011;68680;50.764;6.120;2024-01-15T04:35:26;70.60;;;26.98;;
79047;SDS011;68680;50.764;6.120;2024-01-15T04:37:52;74.32;;;28.25;;
79047;SDS011;68680;50.764;6.120;2024-01-15T04:40:19;82.90;;;30.15;;
79047;SDS011;68680;50.764;6.120;2024-01-15T04:42:45;66.60;;;28.00;;
79047;SDS011;68680;50.764;6.120;2024-01-15T04:45:11;84.93;;;29.55;;
79047;SDS011;68680;50.764;6.120;2024-01-15T04:47:37;67.32;;;26.25;;
79047;SDS011;68680;50.764;6.120;2024-01-15T04:50:03;69.07;;;26.98;;
79047;SDS011;68680;50.764;6.120;2024-01-15T04:52:29;68.60;;;28.60;;
79047;SDS011;68680;50.764;6.120;2024-01-15T04:54:55;76.82;;;28.10;;
79047;SDS011;68680;50.764;6.120;2024-01-15T04:57:22;79.10;;;29.05;;
79047;SDS011;68680;50.764;6.120;2024-01-15T04:59:47;74.47;;;29.52;;
79047;SDS011;68680;50.764;6.120;2024-01-15T05:02:13;80.30;;;29.23;;
79047;SDS011;68680;50.764;6.120;2024-01-15T05:04:39;72.47;;;29.95;;
79047;SDS011;68680;50.764;6.120;2024-01-15T05:07:05;73.32;;;28.23;;
79047;SDS011;68680;50.764;6.120;2024-01-15T05:09:30;68.70;;;27.13;;
79047;SDS011;68680;50.764;6.120;2024-01-15T05:11:56;73.93;;;27.65;;
79047;SDS011;68680;50.764;6.120;2024-01-15T05:14:23;77.55;;;28.85;;
79047;SDS011;68680;50.764;6.120;2024-01-15T05:16:49;76.20;;;27.25;;
79047;SDS011;68680;50.764;6.120;2024-01-15T05:19:15;69.70;;;27.27;;
79047;SDS011;68680;50.764;6.120;2024-01-15T05:21:41;65.15;;;26.20;;
79047;SDS011;68680;50.764;6.120;2024-01-15T05:24:07;59.20;;;24.75;;
79047;SDS011;68680;50.764;6.120;2024-01-15T05:26:33;60.08;;;24.17;;
79047;SDS011;68680;50.764;6.120;2024-01-15T05:28:59;57.28;;;23.30;;
79047;SDS011;68680;50.764;6.120;2024-01-15T05:31:26;52.78;;;22.10;;
79047;SDS011;68680;50.764;6.120;2024-01-15T05:33:52;51.60;;;21.38;;
79047;SDS011;68680;50.764;6.120;2024-01-15T05:36:17;63.05;;;24.10;;
79047;SDS011;68680;50.764;6.120;2024-01-15T05:38:43;60.00;;;22.55;;
79047;SDS011;68680;50.764;6.120;2024-01-15T05:41:09;58.38;;;22.25;;
79047;SDS011;68680;50.764;6.120;2024-01-15T05:43:35;55.42;;;22.33;;
79047;SDS011;68680;50.764;6.120;2024-01-15T05:46:00;51.67;;;21.25;;
79047;SDS011;68680;50.764;6.120;2024-01-15T05:48:27;53.75;;;21.13;;
79047;SDS011;68680;50.764;6.120;2024-01-15T05:50:53;59.85;;;23.05;;
79047;SDS011;68680;50.764;6.120;2024-01-15T05:53:19;63.97;;;24.08;;
79047;SDS011;68680;50.764;6.120;2024-01-15T05:55:45;57.25;;;21.80;;
79047;SDS011;68680;50.764;6.120;2024-01-15T05:58:10;60.05;;;23.85;;
79047;SDS011;68680;50.764;6.120;2024-01-15T06:00:36;58.22;;;24.23;;
79047;SDS011;68680;50.764;6.120;2024-01-15T06:03:02;70.82;;;25.13;;
79047;SDS011;68680;50.764;6.120;2024-01-15T06:05:29;61.65;;;26.30;;
79047;SDS011;68680;50.764;6.120;2024-01-15T06:07:55;64.43;;;24.77;;
79047;SDS011;68680;50.764;6.120;2024-01-15T06:10:21;57.00;;;23.42;;
79047;SDS011;68680;50.764;6.120;2024-01-15T06:12:47;55.95;;;23.92;;
79047;SDS011;68680;50.764;6.120;2024-01-15T06:15:12;58.03;;;24.48;;
79047;SDS011;68680;50.764;6.120;2024-01-15T06:17:38;58.58;;;23.48;;
79047;SDS011;68680;50.764;6.120;2024-01-15T06:20:04;58.50;;;22.33;;
79047;SDS011;68680;50.764;6.120;2024-01-15T06:22:33;59.83;;;22.58;;
79047;SDS011;68680;50.764;6.120;2024-01-15T06:24:59;64.43;;;23.92;;
79047;SDS011;68680;50.764;6.120;2024-01-15T06:27:25;54.33;;;22.80;;
79047;SDS011;68680;50.764;6.120;2024-01-15T06:29:50;63.63;;;23.08;;
79047;SDS011;68680;50.764;6.120;2024-01-15T06:32:16;55.70;;;22.27;;
79047;SDS011;68680;50.764;6.120;2024-01-15T06:34:42;60.65;;;23.27;;
79047;SDS011;68680;50.764;6.120;2024-01-15T06:37:08;59.63;;;23.20;;
79047;SDS011;68680;50.764;6.120;2024-01-15T06:39:35;61.03;;;24.13;;
79047;SDS011;68680;50.764;6.120;2024-01-15T06:42:00;71.30;;;23.83;;
79047;SDS011;68680;50.764;6.120;2024-01-15T06:44:26;66.10;;;23.48;;
79047;SDS011;68680;50.764;6.120;2024-01-15T06:46:52;57.38;;;23.67;;
79047;SDS011;68680;50.764;6.120;2024-01-15T06:49:17;60.95;;;24.75;;
79047;SDS011;68680;50.764;6.120;2024-01-15T06:51:43;62.58;;;24.08;;
79047;SDS011;68680;50.764;6.120;2024-01-15T06:54:09;61.30;;;23.20;;
79047;SDS011;68680;50.764;6.120;2024-01-15T06:56:36;56.83;;;22.52;;
79047;SDS011;68680;50.764;6.120;2024-01-15T06:59:02;70.07;;;26.05;;
79047;SDS011;68680;50.764;6.120;2024-01-15T07:01:27;65.10;;;24.13;;
79047;SDS011;68680;50.764;6.120;2024-01-15T07:03:54;64.20;;;26.83;;
79047;SDS011;68680;50.764;6.120;2024-01-15T07:06:20;65.93;;;25.95;;
79047;SDS011;68680;50.764;6.120;2024-01-15T07:08:45;63.42;;;26.00;;
79047;SDS011;68680;50.764;6.120;2024-01-15T07:11:11;66.70;;;25.73;;
79047;SDS011;68680;50.764;6.120;2024-01-15T07:13:38;60.47;;;24.80;;
79047;SDS011;68680;50.764;6.120;2024-01-15T07:16:04;64.28;;;24.77;;
79047;SDS011;68680;50.764;6.120;2024-01-15T07:18:30;70.80;;;27.42;;
79047;SDS011;68680;50.764;6.120;2024-01-15T07:20:56;55.40;;;22.27;;
79047;SDS011;68680;50.764;6.120;2024-01-15T07:23:21;61.85;;;25.38;;
79047;SDS011;68680;50.764;6.120;2024-01-15T07:25:47;65.10;;;26.13;;
79047;SDS011;68680;50.764;6.120;2024-01-15T07:28:13;66.22;;;25.17;;
79047;SDS011;68680;50.764;6.120;2024-01-15T07:30:40;57.03;;;23.17;;
79047;SDS011;68680;50.764;6.120;2024-01-15T07:33:07;60.67;;;24.20;;
79047;SDS011;68680;50.764;6.120;2024-01-15T07:35:32;59.63;;;22.98;;
79047;SDS011;68680;50.764;6.120;2024-01-15T07:37:58;54.92;;;22.58;;
79047;SDS011;68680;50.764;6.120;2024-01-15T07:40:24;53.05;;;21.58;;
79047;SDS011;68680;50.764;6.120;2024-01-15T07:42:50;46.40;;;20.75;;
79047;SDS011;68680;50.764;6.120;2024-01-15T07:45:15;54.60;;;21.45;;
79047;SDS011;68680;50.764;6.120;2024-01-15T07:47:43;51.13;;;21.48;;
79047;SDS011;68680;50.764;6.120;2024-01-15T07:50:08;49.10;;;18.15;;
79047;SDS011;68680;50.764;6.120;2024-01-15T07:52:34;43.45;;;18.60;;
79047;SDS011;68680;50.764;6.120;2024-01-15T07:55:00;48.80;;;19.38;;
79047;SDS011;68680;50.764;6.120;2024-01-15T07:57:26;45.05;;;19.83;;
79047;SDS011;68680;50.764;6.120;2024-01-15T07:59:52;46.45;;;19.60;;
79047;SDS011;68680;50.764;6.120;2024-01-15T08:02:18;41.50;;;18.65;;
79047;SDS011;68680;50.764;6.120;2024-01-15T08:04:45;43.25;;;17.02;;
79047;SDS011;68680;50.764;6.120;2024-01-15T08:07:10;40.50;;;18.27;;
79047;SDS011;68680;50.764;6.120;2024-01-15T08:09:36;40.28;;;17.73;;
79047;SDS011;68680;50.764;6.120;2024-01-15T08:12:02;41.38;;;15.93;;
79047;SDS011;68680;50.764;6.120;2024-01-15T08:14:28;36.47;;;14.68;;
79047;SDS011;68680;50.764;6.120;2024-01-15T08:16:54;37.42;;;15.13;;
79047;SDS011;68680;50.764;6.120;2024-01-15T08:19:20;35.05;;;14.43;;
79047;SDS011;68680;50.764;6.120;2024-01-15T08:21:47;37.03;;;15.10;;
79047;SDS011;68680;50.764;6.120;2024-01-15T08:24:14;36.83;;;14.73;;
79047;SDS011;68680;50.764;6.120;2024-01-15T08:26:40;38.25;;;14.63;;
79047;SDS011;68680;50.764;6.120;2024-01-15T08:29:06;36.60;;;14.73;;
79047;SDS011;68680;50.764;6.120;2024-01-15T08:31:32;33.10;;;13.88;;
79047;SDS011;68680;50.764;6.120;2024-01-15T08:33:58;39.53;;;14.18;;
79047;SDS011;68680;50.764;6.120;2024-01-15T08:36:23;31.77;;;12.98;;
79047;SDS011;68680;50.764;6.120;2024-01-15T08:38:50;30.80;;;13.30;;
79047;SDS011;68680;50.764;6.120;2024-01-15T08:41:16;29.15;;;13.13;;
79047;SDS011;68680;50.764;6.120;2024-01-15T08:43:42;31.08;;;11.77;;
79047;SDS011;68680;50.764;6.120;2024-01-15T08:46:08;28.60;;;12.98;;
79047;SDS011;68680;50.764;6.120;2024-01-15T08:48:34;25.38;;;12.13;;
79047;SDS011;68680;50.764;6.120;2024-01-15T08:50:59;31.95;;;11.23;;
79047;SDS011;68680;50.764;6.120;2024-01-15T08:53:25;26.13;;;10.80;;
79047;SDS011;68680;50.764;6.120;2024-01-15T08:55:52;24.50;;;11.75;;
79047;SDS011;68680;50.764;6.120;2024-01-15T08:58:18;21.75;;;11.45;;
79047;SDS011;68680;50.764;6.120;2024-01-15T09:00:44;25.20;;;12.32;;
79047;SDS011;68680;50.764;6.120;2024-01-15T09:03:10;31.17;;;13.63;;
79047;SDS011;68680;50.764;6.120;2024-01-15T09:05:35;19.65;;;10.30;;
79047;SDS011;68680;50.764;6.120;2024-01-15T09:08:01;26.08;;;12.13;;
79047;SDS011;68680;50.764;6.120;2024-01-15T09:10:28;24.30;;;12.02;;
79047;SDS011;68680;50.764;6.120;2024-01-15T09:12:55;28.00;;;12.48;;
79047;SDS011;68680;50.764;6.120;2024-01-15T09:15:21;25.50;;;10.82;;
79047;SDS011;68680;50.764;6.120;2024-01-15T09:17:47;25.23;;;11.40;;
79047;SDS011;68680;50.764;6.120;2024-01-15T09:20:13;20.92;;;11.45;;
79047;SDS011;68680;50.764;6.120;2024-01-15T09:22:38;29.33;;;10.95;;
79047;SDS011;68680;50.764;6.120;2024-01-15T09:25:04;33.67;;;12.70;;
79047;SDS011;68680;50.764;6.120;2024-01-15T09:27:31;24.38;;;10.57;;
79047;SDS011;68680;50.764;6.120;2024-01-15T09:29:58;25.73;;;10.90;;
79047;SDS011;68680;50.764;6.120;2024-01-15T09:32:24;24.17;;;10.38;;
79047;SDS011;68680;50.764;6.120;2024-01-15T09:34:49;29.17;;;12.88;;
79047;SDS011;68680;50.764;6.120;2024-01-15T09:37:15;26.65;;;11.68;;
79047;SDS011;68680;50.764;6.120;2024-01-15T09:39:41;28.17;;;11.93;;
79047;SDS011;68680;50.764;6.120;2024-01-15T09:42:07;26.80;;;11.18;;
79047;SDS011;68680;50.764;6.120;2024-01-15T09:44:34;26.02;;;12.02;;
79047;SDS011;68680;50.764;6.120;2024-01-15T09:47:02;26.35;;;11.88;;
79047;SDS011;68680;50.764;6.120;2024-01-15T09:49:29;27.63;;;11.90;;
79047;SDS011;68680;50.764;6.120;2024-01-15T09:51:55;26.33;;;12.05;;
79047;SDS011;68680;50.764;6.120;2024-01-15T09:54:23;25.73;;;10.90;;
79047;SDS011;68680;50.764;6.120;2024-01-15T09:56:49;25.60;;;10.88;;
79047;SDS011;68680;50.764;6.120;2024-01-15T09:59:15;26.88;;;11.73;;
79047;SDS011;68680;50.764;6.120;2024-01-15T10:01:43;22.42;;;11.27;;
79047;SDS011;68680;50.764;6.120;2024-01-15T10:04:11;25.52;;;12.88;;
79047;SDS011;68680;50.764;6.120;2024-01-15T10:06:37;27.27;;;13.30;;
79047;SDS011;68680;50.764;6.120;2024-01-15T10:09:03;32.20;;;14.02;;
79047;SDS011;68680;50.764;6.120;2024-01-15T10:11:29;28.75;;;14.10;;
79047;SDS011;68680;50.764;6.120;2024-01-15T10:13:55;27.85;;;13.95;;
79047;SDS011;68680;50.764;6.120;2024-01-15T10:16:22;30.23;;;13.18;;
79047;SDS011;68680;50.764;6.120;2024-01-15T10:18:48;30.67;;;12.77;;
79047;SDS011;68680;50.764;6.120;2024-01-15T10:21:15;30.95;;;12.73;;
79047;SDS011;68680;50.764;6.120;2024-01-15T10:23:41;32.28;;;14.15;;
79047;SDS011;68680;50.764;6.120;2024-01-15T10:26:07;36.03;;;14.43;;
79047;SDS011;68680;50.764;6.120;2024-01-15T10:28:33;29.83;;;13.43;;
79047;SDS011;68680;50.764;6.120;2024-01-15T10:30:59;31.88;;;13.65;;
79047;SDS011;68680;50.764;6.120;2024-01-15T10:33:25;28.08;;;13.52;;
79047;SDS011;68680;50.764;6.120;2024-01-15T10:35:53;26.52;;;12.80;;
79047;SDS011;68680;50.764;6.120;2024-01-15T10:38:21;23.77;;;11.77;;
79047;SDS011;68680;50.764;6.120;2024-01-15T10:40:47;25.98;;;12.70;;
79047;SDS011;68680;50.764;6.120;2024-01-15T10:43:16;25.40;;;11.73;;
79047;SDS011;68680;50.764;6.120;2024-01-15T10:45:42;30.00;;;13.20;;
79047;SDS011;68680;50.764;6.120;2024-01-15T10:48:08;22.73;;;11.63;;
79047;SDS011;68680;50.764;6.120;2024-01-15T10:50:34;38.58;;;11.65;;
79047;SDS011;68680;50.764;6.120;2024-01-15T10:53:01;24.85;;;11.02;;
79047;SDS011;68680;50.764;6.120;2024-01-15T10:55:29;26.42;;;11.15;;
79047;SDS011;68680;50.764;6.120;2024-01-15T10:57:56;23.55;;;10.60;;
79047;SDS011;68680;50.764;6.120;2024-01-15T11:00:23;17.17;;;10.13;;
79047;SDS011;68680;50.764;6.120;2024-01-15T11:02:49;20.50;;;9.30;;
79047;SDS011;68680;50.764;6.120;2024-01-15T11:05:16;18.42;;;9.68;;
79047;SDS011;68680;50.764;6.120;2024-01-15T11:07:43;14.13;;;7.80;;
79047;SDS011;68680;50.764;6.120;2024-01-15T11:10:16;16.70;;;9.35;;
79047;SDS011;68680;50.764;6.120;2024-01-15T11:13:08;16.92;;;7.90;;
79047;SDS011;68680;50.764;6.120;2024-01-15T11:18:23;13.13;;;7.32;;
79047;SDS011;68680;50.764;6.120;2024-01-15T11:23:51;18.00;;;8.02;;
79047;SDS011;68680;50.764;6.120;2024-01-15T11:26:30;17.40;;;7.40;;
79047;SDS011;68680;50.764;6.120;2024-01-15T11:29:00;19.27;;;7.07;;
79047;SDS011;68680;50.764;6.120;2024-01-15T11:31:28;17.08;;;8.35;;
79047;SDS011;68680;50.764;6.120;2024-01-15T11:33:54;13.90;;;6.78;;
79047;SDS011;68680;50.764;6.120;2024-01-15T11:36:20;15.88;;;5.82;;
79047;SDS011;68680;50.764;6.120;2024-01-15T11:38:46;17.42;;;6.78;;
79047;SDS011;68680;50.764;6.120;2024-01-15T11:41:13;18.90;;;7.65;;
79047;SDS011;68680;50.764;6.120;2024-01-15T11:43:41;17.63;;;6.45;;
79047;SDS011;68680;50.764;6.120;2024-01-15T11:46:08;16.63;;;6.10;;
79047;SDS011;68680;50.764;6.120;2024-01-15T11:48:41;10.35;;;6.03;;
79047;SDS011;68680;50.764;6.120;2024-01-15T11:51:08;19.00;;;6.35;;
79047;SDS011;68680;50.764;6.120;2024-01-15T11:53:36;15.38;;;5.75;;
79047;SDS011;68680;50.764;6.120;2024-01-15T11:56:11;18.63;;;5.65;;
79047;SDS011;68680;50.764;6.120;2024-01-15T11:58:42;14.02;;;5.38;;
79047;SDS011;68680;50.764;6.120;2024-01-15T12:01:08;14.82;;;6.22;;
79047;SDS011;68680;50.764;6.120;2024-01-15T12:03:35;16.33;;;6.38;;
79047;SDS011;68680;50.764;6.120;2024-01-15T12:06:01;8.75;;;5.47;;
79047;SDS011;68680;50.764;6.120;2024-01-15T12:08:30;10.73;;;5.35;;
79047;SDS011;68680;50.764;6.120;2024-01-15T12:10:56;9.30;;;4.75;;
79047;SDS011;68680;50.764;6.120;2024-01-15T12:13:22;10.18;;;4.40;;
79047;SDS011;68680;50.764;6.120;2024-01-15T12:15:49;10.52;;;4.68;;
79047;SDS011;68680;50.764;6.120;2024-01-15T12:18:15;11.65;;;4.88;;
79047;SDS011;68680;50.764;6.120;2024-01-15T12:20:43;9.18;;;4.13;;
79047;SDS011;68680;50.764;6.120;2024-01-15T12:23:10;11.15;;;4.55;;
79047;SDS011;68680;50.764;6.120;2024-01-15T12:25:36;16.77;;;4.68;;
79047;SDS011;68680;50.764;6.120;2024-01-15T12:28:02;6.47;;;4.15;;
79047;SDS011;68680;50.764;6.120;2024-01-15T12:30:29;9.52;;;3.85;;
79047;SDS011;68680;50.764;6.120;2024-01-15T12:32:59;17.40;;;4.25;;
79047;SDS011;68680;50.764;6.120;2024-01-15T12:35:26;10.10;;;4.18;;
79047;SDS011;68680;50.764;6.120;2024-01-15T12:37:53;10.93;;;3.72;;
79047;SDS011;68680;50.764;6.120;2024-01-15T12:40:19;8.73;;;5.45;;
79047;SDS011;68680;50.764;6.120;2024-01-15T12:42:47;11.90;;;4.50;;
79047;SDS011;68680;50.764;6.120;2024-01-15T12:45:12;8.52;;;4.00;;
79047;SDS011;68680;50.764;6.120;2024-01-15T12:47:39;13.55;;;4.47;;
79047;SDS011;68680;50.764;6.120;2024-01-15T12:50:08;12.77;;;4.55;;
79047;SDS011;68680;50.764;6.120;2024-01-15T12:52:35;11.13;;;4.22;;
79047;SDS011;68680;50.764;6.120;2024-01-15T12:55:00;13.18;;;4.80;;
79047;SDS011;68680;50.764;6.120;2024-01-15T12:57:26;7.90;;;4.75;;
79047;SDS011;68680;50.764;6.120;2024-01-15T12:59:54;13.30;;;4.30;;
79047;SDS011;68680;50.764;6.120;2024-01-15T13:02:20;11.13;;;4.90;;
79047;SDS011;68680;50.764;6.120;2024-01-15T13:04:45;9.35;;;5.28;;
79047;SDS011;68680;50.764;6.120;2024-01-15T13:07:12;14.27;;;6.40;;
79047;SDS011;68680;50.764;6.120;2024-01-15T13:09:38;10.00;;;5.93;;
79047;SDS011;68680;50.764;6.120;2024-01-15T13:12:04;8.90;;;6.60;;
79047;SDS011;68680;50.764;6.120;2024-01-15T13:14:31;14.00;;;6.00;;
79047;SDS011;68680;50.764;6.120;2024-01-15T13:16:58;14.38;;;5.88;;
79047;SDS011;68680;50.764;6.120;2024-01-15T13:19:24;6.93;;;5.88;;
79047;SDS011;68680;50.764;6.120;2024-01-15T13:21:50;8.70;;;5.70;;
79047;SDS011;68680;50.764;6.120;2024-01-15T13:24:17;11.07;;;6.47;;
79047;SDS011;68680;50.764;6.120;2024-01-15T13:26:43;10.38;;;5.07;;
79047;SDS011;68680;50.764;6.120;2024-01-15T13:29:09;10.63;;;4.80;;
79047;SDS011;68680;50.764;6.120;2024-01-15T13:31:35;8.00;;;4.95;;
79047;SDS011;68680;50.764;6.120;2024-01-15T13:34:01;6.80;;;4.97;;
79047;SDS011;68680;50.764;6.120;2024-01-15T13:36:26;5.38;;;4.82;;
79047;SDS011;68680;50.764;6.120;2024-01-15T13:38:53;11.63;;;4.90;;
79047;SDS011;68680;50.764;6.120;2024-01-15T13:41:20;5.80;;;4.72;;
79047;SDS011;68680;50.764;6.120;2024-01-15T13:43:48;7.95;;;4.55;;
79047;SDS011;68680;50.764;6.120;2024-01-15T13:46:15;7.43;;;4.88;;
79047;SDS011;68680;50.764;6.120;2024-01-15T13:48:41;8.88;;;4.78;;
79047;SDS011;68680;50.764;6.120;2024-01-15T13:51:06;9.00;;;4.55;;
79047;SDS011;68680;50.764;6.120;2024-01-15T13:53:32;26.13;;;12.05;;
79047;SDS011;68680;50.764;6.120;2024-01-15T13:55:58;10.45;;;5.78;;
79047;SDS011;68680;50.764;6.120;2024-01-15T13:58:25;7.78;;;4.45;;
79047;SDS011;68680;50.764;6.120;2024-01-15T14:00:51;5.57;;;4.95;;
79047;SDS011;68680;50.764;6.120;2024-01-15T14:03:17;5.28;;;4.78;;
79047;SDS011;68680;50.764;6.120;2024-01-15T14:05:42;8.77;;;4.80;;
79047;SDS011;68680;50.764;6.120;2024-01-15T14:08:08;8.10;;;5.05;;
79047;SDS011;68680;50.764;6.120;2024-01-15T14:10:34;7.03;;;5.03;;
79047;SDS011;68680;50.764;6.120;2024-01-15T14:13:00;6.35;;;5.57;;
79047;SDS011;68680;50.764;6.120;2024-01-15T14:15:27;6.95;;;4.50;;
79047;SDS011;68680;50.764;6.120;2024-01-15T14:17:52;8.93;;;5.20;;
79047;SDS011;68680;50.764;6.120;2024-01-15T14:20:18;11.63;;;3.97;;
79047;SDS011;68680;50.764;6.120;2024-01-15T14:22:44;7.60;;;4.28;;
79047;SDS011;68680;50.764;6.120;2024-01-15T14:25:10;4.93;;;3.47;;